Time;durP1;ratioP1;P1;durP2;ratioP2;P2;SDS_P1;SDS_P2;PMS_P1;PMS_P2;Temp;Humidity;BMP_temperature;BMP_pressure;BME280_temperature;BME280_humidity;BME280_pressure;Samples;Min_cycle;Max_cycle;Signal;HPM_P1;HPM_P2
2023/10/04 00:00:44;;;;;;;;;3.67;3.00;;;;;14.15;100.00;102466.91;5009432;28;45460;-83
2023/10/04 00:03:09;;;;;;;;;2.33;1.67;;;;;14.17;100.00;102461.19;5009292;28;45606;-81
2023/10/04 00:05:37;;;;;;;;;2.67;2.67;;;;;14.15;100.00;102464.16;5006106;28;47070;-78
2023/10/04 00:08:09;;;;;;;;;3.33;2.00;;;;;14.10;100.00;102459.19;5003181;28;45806;-79
2023/10/04 00:10:35;;;;;;;;;2.00;0.67;;;;;13.82;100.00;102422.25;4995791;28;45556;-80
2023/10/04 00:13:00;;;;;;;;;1.33;1.33;;;;;14.06;100.00;102470.81;5010541;28;45812;-80
2023/10/04 00:15:27;;;;;;;;;5.00;2.00;;;;;13.99;100.00;102451.38;5012848;28;46205;-80
2023/10/04 00:17:59;;;;;;;;;2.67;1.33;;;;;13.95;100.00;102453.69;5025049;28;45823;-80
2023/10/04 00:20:32;;;;;;;;;2.00;2.00;;;;;13.80;100.00;102430.72;5013727;28;46036;-80
2023/10/04 00:22:58;;;;;;;;;4.00;2.00;;;;;13.95;100.00;102456.44;5013836;28;46055;-79
2023/10/04 00:25:24;;;;;;;;;0.33;0.33;;;;;13.83;100.00;102433.13;5016053;28;45718;-80
2023/10/04 00:27:52;;;;;;;;;1.33;1.33;;;;;13.82;100.00;102442.44;5012583;28;45484;-78
2023/10/04 00:30:18;;;;;;;;;1.67;1.00;;;;;13.83;100.00;102437.78;5007536;28;45853;-83
2023/10/04 00:32:46;;;;;;;;;2.00;2.00;;;;;13.72;100.00;102425.31;5023377;28;45382;-82
2023/10/04 00:35:15;;;;;;;;;3.00;1.00;;;;;13.87;100.00;102462.03;5015732;28;45559;-79
2023/10/04 00:37:43;;;;;;;;;5.67;1.33;;;;;13.83;100.00;102457.06;5015847;28;45582;-81
2023/10/04 00:40:14;;;;;;;;;4.33;1.67;;;;;13.82;100.00;102452.59;5027217;28;45840;-80
2023/10/04 00:42:40;;;;;;;;;1.00;1.00;;;;;13.81;100.00;102460.03;5022758;28;45804;-81
2023/10/04 00:45:07;;;;;;;;;2.00;0.67;;;;;13.71;100.00;102448.41;5015232;28;45391;-82
2023/10/04 00:47:33;;;;;;;;;2.33;1.33;;;;;13.75;100.00;102460.78;5012006;28;45966;-80
2023/10/04 00:50:09;;;;;;;;;2.00;1.00;;;;;13.64;100.00;102431.78;5013807;28;45372;-83
2023/10/04 00:52:35;;;;;;;;;2.67;1.33;;;;;13.71;100.00;102454.81;5016780;28;45680;-82
2023/10/04 00:55:01;;;;;;;;;2.00;2.00;;;;;13.58;100.00;102435.28;5010963;28;46507;-83
2023/10/04 00:57:26;;;;;;;;;3.67;1.00;;;;;13.67;100.00;102450.69;5010998;28;45397;-82
2023/10/04 00:59:52;;;;;;;;;2.33;2.00;;;;;13.63;100.00;102448.50;5010625;28;45431;-82
2023/10/04 01:02:17;;;;;;;;;5.33;3.00;;;;;13.52;100.00;102436.03;5015414;28;45704;-82
2023/10/04 01:04:43;;;;;;;;;2.00;2.00;;;;;13.48;100.00;102438.28;5014214;28;48214;-82
2023/10/04 01:07:09;;;;;;;;;1.00;1.00;;;;;13.50;100.00;102450.00;5012307;28;45342;-82
2023/10/04 01:09:34;;;;;;;;;3.00;1.00;;;;;13.54;100.00;102437.53;5013839;28;46780;-81
2023/10/04 01:11:59;;;;;;;;;3.00;2.00;;;;;13.56;100.00;102442.88;5013125;28;45748;-82
2023/10/04 01:14:26;;;;;;;;;1.33;1.33;;;;;13.50;100.00;102454.66;5009226;28;48109;-82
2023/10/04 01:16:52;;;;;;;;;2.67;2.00;;;;;13.55;100.00;102461.31;5010160;28;45554;-81
2023/10/04 01:19:18;;;;;;;;;1.67;1.00;;;;;13.55;100.00;102460.47;5012662;28;45489;-83
2023/10/04 01:21:45;;;;;;;;;1.67;1.67;;;;;13.47;100.00;102463.28;5012692;28;45671;-82
2023/10/04 01:24:11;;;;;;;;;2.00;2.00;;;;;13.44;100.00;102459.00;5016473;28;47968;-82
2023/10/04 01:26:39;;;;;;;;;3.67;2.00;;;;;13.28;100.00;102432.44;5010498;28;45604;-82
2023/10/04 01:29:11;;;;;;;;;1.00;0.00;;;;;13.50;100.00;102466.53;5013236;28;45328;-82
2023/10/04 01:31:37;;;;;;;;;1.00;1.00;;;;;13.50;100.00;102461.03;5013557;28;45556;-80
2023/10/04 01:34:04;;;;;;;;;1.00;1.00;;;;;13.45;100.00;102462.63;5013362;28;46175;-83
2023/10/04 01:36:38;;;;;;;;;2.33;2.00;;;;;13.49;100.00;102464.81;5014011;28;45371;-81
2023/10/04 01:39:07;;;;;;;;;3.00;3.00;;;;;13.35;100.00;102443.59;5014561;28;45515;-83
2023/10/04 01:41:37;;;;;;;;;2.00;1.00;;;;;13.32;100.00;102431.00;5018272;28;45729;-83
2023/10/04 01:44:04;;;;;;;;;2.00;1.67;;;;;13.44;100.00;102447.97;5038892;28;46739;-81
2023/10/04 01:46:30;;;;;;;;;3.00;3.00;;;;;13.48;100.00;102452.06;5028435;28;45676;-81
2023/10/04 01:48:56;;;;;;;;;3.00;2.00;;;;;13.44;100.00;102445.22;5025286;28;45704;-82
2023/10/04 01:51:22;;;;;;;;;2.00;1.33;;;;;13.44;100.00;102445.22;5023757;28;45642;-82
2023/10/04 01:53:47;;;;;;;;;2.00;1.00;;;;;13.42;100.00;102428.03;5023122;28;46112;-81
2023/10/04 01:56:13;;;;;;;;;1.67;1.67;;;;;13.32;100.00;102413.59;5022072;28;45486;-81
2023/10/04 01:58:38;;;;;;;;;1.00;1.00;;;;;13.41;100.00;102435.44;5021375;28;45777;-82
2023/10/04 02:01:06;;;;;;;;;2.33;2.33;;;;;13.40;100.00;102419.94;5013586;28;45907;-79
2023/10/04 02:03:33;;;;;;;;;4.00;2.00;;;;;13.37;100.00;102416.72;5038041;28;47267;-82
2023/10/04 02:05:59;;;;;;;;;3.00;2.00;;;;;13.41;100.00;102426.28;5022087;28;45482;-82
2023/10/04 02:08:25;;;;;;;;;1.67;1.67;;;;;13.39;100.00;102425.63;5028517;28;45839;-83
2023/10/04 02:10:56;;;;;;;;;6.67;1.00;;;;;13.34;100.00;102400.56;5022302;28;45972;-83
2023/10/04 02:13:21;;;;;;;;;1.00;1.00;;;;;13.42;100.00;102411.47;5022856;28;46265;-83
2023/10/04 02:15:53;;;;;;;;;1.00;1.00;;;;;13.17;100.00;102375.88;5025387;28;45132;-82
2023/10/04 02:18:20;;;;;;;;;4.67;2.00;;;;;13.41;100.00;102418.03;5018564;28;45744;-82
2023/10/04 02:20:50;;;;;;;;;3.33;0.67;;;;;13.41;100.00;102418.03;5016637;28;45798;-82
2023/10/04 02:23:16;;;;;;;;;3.33;2.00;;;;;13.40;100.00;102428.22;5009429;28;47488;-79
2023/10/04 02:25:42;;;;;;;;;1.00;1.00;;;;;13.39;100.00;102420.97;5014425;28;45583;-82
2023/10/04 02:28:26;;;;;;;;;1.00;1.00;;;;;13.30;100.00;102401.94;5017062;28;45925;-82
2023/10/04 02:30:55;;;;;;;;;6.00;2.00;;;;;13.38;100.00;102412.91;5020205;28;45455;-81
2023/10/04 02:33:20;;;;;;;;;3.33;1.00;;;;;13.37;100.00;102406.53;5020354;28;45811;-83
2023/10/04 02:35:48;;;;;;;;;4.67;2.00;;;;;13.36;100.00;102406.72;5022833;28;45556;-82
2023/10/04 02:38:26;;;;;;;;;2.67;1.67;;;;;13.37;100.00;102416.72;5013856;28;45421;-82
2023/10/04 02:40:54;;;;;;;;;3.00;2.00;;;;;13.32;100.00;102411.69;5029211;28;45984;-80
2023/10/04 02:43:22;;;;;;;;;3.00;2.00;;;;;13.13;100.00;102381.91;5019345;28;46195;-78
2023/10/04 02:45:48;;;;;;;;;1.67;1.67;;;;;13.17;100.00;102399.78;5020978;28;44817;-81
2023/10/04 02:48:14;;;;;;;;;4.00;3.00;;;;;13.31;100.00;102428.41;5038240;28;45431;-82
2023/10/04 02:50:40;;;;;;;;;2.00;2.00;;;;;13.28;100.00;102431.53;5022023;28;44926;-82
2023/10/04 02:53:07;;;;;;;;;2.67;2.00;;;;;13.19;100.00;102420.63;5035619;28;47009;-78
2023/10/04 02:55:32;;;;;;;;;5.33;2.00;;;;;13.30;100.00;102440.50;5019094;28;45492;-79
2023/10/04 02:57:59;;;;;;;;;4.33;2.00;;;;;13.10;100.00;102407.94;5017085;28;45278;-79
2023/10/04 03:00:25;;;;;;;;;5.00;3.00;;;;;13.00;100.00;102399.09;5017099;28;46424;-80
2023/10/04 03:02:53;;;;;;;;;1.67;1.00;;;;;13.28;100.00;102439.81;5021525;28;47298;-81
2023/10/04 03:05:19;;;;;;;;;1.67;1.00;;;;;13.11;100.00;102423.41;5015519;28;45525;-80
2023/10/04 03:07:47;;;;;;;;;7.00;2.67;;;;;13.24;100.00;102433.81;5017388;28;45406;-81
2023/10/04 03:10:13;;;;;;;;;2.00;2.00;;;;;13.22;100.00;102436.78;5014516;28;45425;-82
2023/10/04 03:12:41;;;;;;;;;5.00;3.67;;;;;13.18;100.00;102440.94;5014865;28;47278;-82
2023/10/04 03:15:07;;;;;;;;;2.67;1.67;;;;;13.19;100.00;102439.91;5015544;28;45512;-82
2023/10/04 03:17:32;;;;;;;;;1.33;1.33;;;;;13.15;100.00;102441.31;5015907;28;45447;-82
2023/10/04 03:19:58;;;;;;;;;4.00;1.67;;;;;13.08;100.00;102426.53;5018481;28;45812;-83
2023/10/04 03:22:23;;;;;;;;;0.67;0.67;;;;;13.16;100.00;102440.28;5007407;28;48020;-81
2023/10/04 03:24:53;;;;;;;;;5.00;2.33;;;;;13.15;100.00;102429.44;5016271;28;45839;-82
2023/10/04 03:27:21;;;;;;;;;2.67;2.00;;;;;13.13;100.00;102429.63;5013325;28;45734;-82
2023/10/04 03:29:48;;;;;;;;;2.67;1.33;;;;;13.07;100.00;102427.59;5033455;28;46080;-81
2023/10/04 03:32:15;;;;;;;;;2.67;1.67;;;;;13.06;100.00;102425.88;5016906;28;45937;-80
2023/10/04 03:34:40;;;;;;;;;2.00;1.00;;;;;12.95;100.00;102404.28;5009981;28;45416;-80
2023/10/04 03:37:13;;;;;;;;;4.00;2.00;;;;;12.99;100.00;102408.38;5008849;28;45674;-81
2023/10/04 03:39:39;;;;;;;;;2.00;1.00;;;;;13.07;100.00;102416.59;5026226;28;45909;-81
2023/10/04 03:42:05;;;;;;;;;2.00;1.00;;;;;13.07;100.00;102431.22;5024122;28;47958;-82
2023/10/04 03:44:31;;;;;;;;;4.67;2.00;;;;;13.06;100.00;102436.91;5016465;28;45411;-82
2023/10/04 03:46:57;;;;;;;;;2.00;2.00;;;;;12.98;100.00;102421.31;5022676;28;45390;-83
2023/10/04 03:49:24;;;;;;;;;1.67;1.67;;;;;12.97;100.00;102424.25;5008213;28;46334;-80
2023/10/04 03:51:52;;;;;;;;;3.00;2.00;;;;;12.98;100.00;102431.44;5013379;28;45895;-79
2023/10/04 03:54:18;;;;;;;;;3.67;2.67;;;;;12.80;100.00;102399.56;5028866;28;45512;-81
2023/10/04 03:56:43;;;;;;;;;4.00;2.00;;;;;12.98;100.00;102424.06;5017304;28;45787;-78
2023/10/04 03:59:09;;;;;;;;;7.00;4.67;;;;;12.94;100.00;102422.69;5011231;28;45918;-80
2023/10/04 04:01:35;;;;;;;;;7.67;1.67;;;;;12.88;100.00;102413.28;5014948;28;46920;-82
2023/10/04 04:04:03;;;;;;;;;4.00;3.00;;;;;12.94;100.00;102430.13;5013025;28;45786;-82
2023/10/04 04:06:30;;;;;;;;;2.00;2.00;;;;;12.91;100.00;102423.06;5013570;28;45922;-80
2023/10/04 04:08:58;;;;;;;;;3.00;2.33;;;;;12.84;100.00;102419.31;5007348;28;45600;-81
2023/10/04 04:11:23;;;;;;;;;2.33;2.00;;;;;12.88;100.00;102424.28;5007426;28;47087;-82
2023/10/04 04:13:52;;;;;;;;;1.67;1.00;;;;;12.86;100.00;102422.78;5013234;28;45625;-82
2023/10/04 04:16:17;;;;;;;;;2.33;2.33;;;;;12.89;100.00;102426.00;5015025;28;46027;-80
2023/10/04 04:18:44;;;;;;;;;0.67;0.67;;;;;12.88;100.00;102437.19;5008703;28;45574;-79
2023/10/04 04:21:10;;;;;;;;;1.00;1.00;;;;;12.86;100.00;102426.38;5012159;28;48383;-80
2023/10/04 04:23:36;;;;;;;;;1.67;0.67;;;;;12.85;100.00;102424.66;5009818;28;45479;-80
2023/10/04 04:26:05;;;;;;;;;1.00;1.00;;;;;12.79;100.00;102419.03;5013296;28;45565;-79
2023/10/04 04:28:34;;;;;;;;;2.67;1.67;;;;;12.86;100.00;102436.53;5025063;28;45869;-81
2023/10/04 04:31:00;;;;;;;;;3.33;1.00;;;;;12.91;100.00;102444.25;5017217;28;46758;-81
2023/10/04 04:33:28;;;;;;;;;2.67;2.00;;;;;12.87;100.00;102439.13;5024181;28;45520;-82
2023/10/04 04:36:00;;;;;;;;;5.67;2.67;;;;;12.77;100.00;102418.34;5011718;28;45411;-82
2023/10/04 04:38:28;;;;;;;;;11.00;5.67;;;;;12.81;100.00;102428.81;5020312;28;45632;-83
2023/10/04 04:40:56;;;;;;;;;7.00;7.00;;;;;12.89;100.00;102442.53;5022327;28;47969;-81
2023/10/04 04:45:51;;;;;;;;;5.00;4.00;;;;;12.84;100.00;102433.97;5011068;28;45800;-82
2023/10/04 04:48:37;;;;;;;;;10.00;9.00;;;;;12.87;100.00;102444.63;5014433;28;45950;-81
2023/10/04 04:53:35;;;;;;;;;3.67;1.67;;;;;12.85;100.00;102434.81;5010677;28;45413;-79
2023/10/04 04:56:04;;;;;;;;;12.00;6.67;;;;;12.85;100.00;102438.41;5028615;28;45831;-82
2023/10/04 04:58:31;;;;;;;;;2.00;2.00;;;;;12.78;100.00;102420.91;5019218;28;45588;-80
2023/10/04 05:01:00;;;;;;;;;3.00;1.67;;;;;12.85;100.00;102434.81;5014935;28;47962;-82
2023/10/04 05:03:33;;;;;;;;;6.00;3.33;;;;;12.68;100.00;102401.03;5014522;28;45555;-79
2023/10/04 05:05:59;;;;;;;;;4.00;2.67;;;;;12.81;100.00;102433.47;5002910;28;45578;-78
2023/10/04 05:08:25;;;;;;;;;6.33;3.33;;;;;12.81;100.00;102428.81;4975988;28;46956;-79
2023/10/04 05:11:20;;;;;;;;;4.33;2.67;;;;;12.80;100.00;102431.72;4984955;28;46587;-79
2023/10/04 05:14:10;;;;;;;;;3.00;3.00;;;;;12.67;100.00;102416.69;4984735;28;45680;-81
2023/10/04 05:23:56;;;;;;;;;5.00;2.67;;;;;12.73;100.00;102445.38;4897099;28;45915;-82
2023/10/04 05:26:21;;;;;;;;;7.33;6.67;;;;;12.63;100.00;102436.50;4988168;28;46186;-82
2023/10/04 05:28:47;;;;;;;;;6.67;5.00;;;;;12.52;100.00;102410.25;4988683;28;46115;-80
2023/10/04 05:31:12;;;;;;;;;6.67;3.67;;;;;12.55;100.00;102423.66;4965702;28;46163;-81
2023/10/04 05:33:38;;;;;;;;;4.00;4.00;;;;;12.52;100.00;102427.59;4972432;28;48134;-82
2023/10/04 05:36:06;;;;;;;;;3.33;3.00;;;;;12.60;100.00;102431.34;4990385;28;46318;-82
2023/10/04 05:38:35;;;;;;;;;7.33;3.67;;;;;12.67;100.00;102438.69;5011599;28;45443;-84
2023/10/04 05:41:02;;;;;;;;;4.00;2.33;;;;;12.53;100.00;102410.06;5011356;28;45928;-82
2023/10/04 05:43:29;;;;;;;;;3.67;2.00;;;;;12.62;100.00;102429.28;5013142;28;46077;-82
2023/10/04 05:45:55;;;;;;;;;5.00;2.33;;;;;12.65;100.00;102426.16;5011351;28;45592;-82
2023/10/04 05:48:20;;;;;;;;;4.00;3.00;;;;;12.64;100.00;102418.94;5023634;28;45497;-81
2023/10/04 05:50:50;;;;;;;;;3.00;2.00;;;;;12.71;100.00;102423.53;5022420;28;45499;-83
2023/10/04 05:53:19;;;;;;;;;6.00;2.67;;;;;12.79;100.00;102433.66;5014930;28;46887;-81
2023/10/04 05:55:45;;;;;;;;;3.67;2.67;;;;;12.81;100.00;102431.56;5016734;28;45584;-80
2023/10/04 05:58:11;;;;;;;;;5.00;2.00;;;;;12.73;100.00;102415.09;5011318;28;45753;-83
2023/10/04 06:00:40;;;;;;;;;7.00;3.33;;;;;12.82;100.00;102427.78;5029162;28;46989;-83
2023/10/04 06:03:08;;;;;;;;;1.67;1.67;;;;;12.85;100.00;102441.16;5012011;28;45478;-82
2023/10/04 06:05:38;;;;;;;;;3.67;2.00;;;;;12.96;100.00;102441.78;5014043;28;45750;-82
2023/10/04 06:08:06;;;;;;;;;7.00;3.00;;;;;13.01;100.00;102436.59;5012714;28;45526;-83
2023/10/04 06:10:32;;;;;;;;;2.67;2.67;;;;;12.96;100.00;102431.63;5021597;28;46514;-81
2023/10/04 06:12:58;;;;;;;;;5.33;5.00;;;;;13.11;100.00;102447.38;5022365;28;45983;-77
2023/10/04 06:15:24;;;;;;;;;5.33;3.33;;;;;13.16;100.00;102436.63;5008383;28;46012;-80
2023/10/04 06:17:52;;;;;;;;;5.67;3.33;;;;;13.20;100.00;102444.38;5010863;28;45454;-79
2023/10/04 06:20:28;;;;;;;;;4.33;4.33;;;;;13.22;100.00;102436.78;5007616;28;45781;-79
2023/10/04 06:23:01;;;;;;;;;3.00;3.00;;;;;13.34;100.00;102447.41;5011249;28;45774;-79
2023/10/04 06:25:29;;;;;;;;;4.33;3.67;;;;;13.46;100.00;102456.94;5008664;28;46034;-82
2023/10/04 06:27:56;;;;;;;;;4.00;3.00;;;;;13.41;100.00;102429.94;5009260;28;45985;-81
2023/10/04 06:30:26;;;;;;;;;3.00;2.00;;;;;13.67;100.00;102449.84;5013152;28;45581;-80
2023/10/04 06:32:57;;;;;;;;;6.00;3.00;;;;;13.80;100.00;102449.19;5009795;28;45676;-80
2023/10/04 06:35:24;;;;;;;;;5.67;3.00;;;;;14.10;100.00;102441.78;5008054;28;45912;-81
2023/10/04 06:37:51;;;;;;;;;4.33;3.67;;;;;14.54;100.00;102449.16;5009752;28;45918;-81
2023/10/04 06:40:21;;;;;;;;;8.00;6.33;;;;;15.00;100.00;102459.91;5005209;28;45700;-80
2023/10/04 06:42:48;;;;;;;;;7.00;3.00;;;;;15.44;100.00;102446.09;5007579;28;47343;-80
2023/10/04 06:45:18;;;;;;;;;5.00;2.00;;;;;15.95;100.00;102470.75;5011043;28;45829;-80
2023/10/04 06:47:49;;;;;;;;;8.33;2.67;;;;;16.43;100.00;102461.66;5014798;28;45510;-81
2023/10/04 06:50:20;;;;;;;;;6.67;5.00;;;;;17.03;100.00;102467.41;5011704;28;45532;-83
2023/10/04 06:52:47;;;;;;;;;3.67;3.33;;;;;17.55;100.00;102462.16;5008643;28;45781;-82
2023/10/04 06:55:13;;;;;;;;;4.00;2.00;;;;;17.75;100.00;102462.13;5026414;28;45921;-79
2023/10/04 06:57:39;;;;;;;;;5.00;3.00;;;;;17.64;100.00;102468.34;5006752;28;45663;-81
2023/10/04 07:00:15;;;;;;;;;3.00;3.00;;;;;17.54;100.00;102468.75;5009962;28;45845;-80
2023/10/04 07:02:54;;;;;;;;;3.33;3.33;;;;;17.46;100.00;102468.97;5008513;28;47022;-81
2023/10/04 07:05:26;;;;;;;;;8.33;3.33;;;;;17.44;100.00;102480.28;5002662;28;45785;-78
2023/10/04 07:07:57;;;;;;;;;2.00;2.00;;;;;17.45;100.00;102486.69;5003715;28;45559;-79
2023/10/04 07:10:26;;;;;;;;;4.00;3.00;;;;;17.36;100.00;102480.47;5010366;28;45531;-81
2023/10/04 07:12:54;;;;;;;;;3.50;3.00;;;;;17.46;100.00;102483.69;5004485;28;46086;-80
2023/10/04 07:15:23;;;;;;;;;3.67;2.67;;;;;17.44;100.00;102494.16;5004079;28;45898;-83
2023/10/04 07:17:52;;;;;;;;;4.00;4.00;;;;;17.41;100.00;102491.81;5006593;28;45597;-81
2023/10/04 07:20:18;;;;;;;;;5.00;5.00;;;;;17.41;100.00;102497.34;5007516;28;45725;-82
2023/10/04 07:22:47;;;;;;;;;6.67;3.33;;;;;17.45;100.00;102495.88;5007743;28;47153;-79
2023/10/04 07:25:14;;;;;;;;;2.33;1.33;;;;;17.49;100.00;102493.53;5010448;28;45515;-80
2023/10/04 07:27:42;;;;;;;;;3.33;3.00;;;;;17.55;100.00;102487.13;5012875;28;45580;-81
2023/10/04 07:30:12;;;;;;;;;5.67;3.33;;;;;17.63;100.00;102494.38;5012526;28;47502;-79
2023/10/04 07:32:44;;;;;;;;;4.33;3.00;;;;;17.67;100.00;102490.09;5012102;28;46048;-81
2023/10/04 07:35:12;;;;;;;;;6.33;4.00;;;;;17.80;100.00;102501.22;5013124;28;45761;-81
2023/10/04 07:37:39;;;;;;;;;8.00;4.33;;;;;17.80;100.00;102490.09;5012626;28;45443;-81
2023/10/04 07:40:09;;;;;;;;;7.00;4.00;;;;;18.00;100.00;102514.25;5013567;28;45769;-80
2023/10/04 07:42:36;;;;;;;;;6.00;4.67;;;;;18.00;100.00;102505.91;5013908;28;45538;-80
2023/10/04 07:45:03;;;;;;;;;4.33;4.33;;;;;18.09;100.00;102510.16;5012980;28;45516;-79
2023/10/04 07:47:36;;;;;;;;;4.67;2.67;;;;;18.28;100.00;102515.91;5014668;28;45504;-78
2023/10/04 07:50:09;;;;;;;;;4.00;4.00;;;;;18.26;100.00;102498.59;5011995;28;45901;-80
2023/10/04 07:52:38;;;;;;;;;3.33;3.33;;;;;18.42;100.00;102505.63;5015476;28;45815;-80
2023/10/04 07:55:15;;;;;;;;;5.33;3.00;;;;;18.62;100.00;102519.44;5011852;28;45583;-85
2023/10/04 07:57:44;;;;;;;;;5.00;5.00;;;;;18.81;100.00;102535.16;5014527;28;45485;-80
2023/10/04 08:00:14;;;;;;;;;3.00;3.00;;;;;18.88;100.00;102536.03;5012341;28;45922;-80
2023/10/04 08:02:50;;;;;;;;;4.33;2.00;;;;;18.87;100.00;102525.97;4998644;28;47188;-79
2023/10/04 08:05:26;;;;;;;;;7.00;5.67;;;;;19.14;100.00;102531.41;5002309;28;45521;-79
2023/10/04 08:07:56;;;;;;;;;4.67;2.00;;;;;19.21;100.00;102529.44;5008474;28;45617;-80
2023/10/04 08:10:25;;;;;;;;;4.00;3.00;;;;;19.38;100.00;102531.69;5012775;28;45959;-80
2023/10/04 08:12:52;;;;;;;;;4.33;2.33;;;;;19.53;100.00;102537.78;5031538;28;46843;-79
2023/10/04 08:15:21;;;;;;;;;6.33;2.67;;;;;19.54;100.00;102533.09;5014358;28;45777;-80
2023/10/04 08:17:51;;;;;;;;;2.00;2.00;;;;;19.65;100.00;102546.25;5013816;28;45877;-78
2023/10/04 08:20:18;;;;;;;;;4.25;2.25;;;;;19.74;100.00;102544.06;5012197;28;46798;-80
2023/10/04 08:22:44;;;;;;;;;3.00;3.00;;;;;19.82;100.00;102529.91;5012633;28;46999;-82
2023/10/04 08:25:13;;;;;;;;;5.67;4.00;;;;;19.88;100.00;102523.41;5026115;28;45417;-79
2023/10/04 08:27:39;;;;;;;;;3.33;2.00;;;;;20.06;100.00;102524.50;5018825;28;45882;-88
2023/10/04 08:30:11;;;;;;;;;3.67;3.67;;;;;20.18;100.00;102513.47;5027787;28;45494;-84
2023/10/04 08:32:37;;;;;;;;;5.00;2.25;;;;;20.31;100.00;102529.22;5017290;28;45650;-81
2023/10/04 08:35:03;;;;;;;;;3.25;3.00;;;;;20.44;100.00;102520.69;5019473;28;45463;-80
2023/10/04 08:37:29;;;;;;;;;3.00;2.00;;;;;20.44;100.00;102515.13;5014278;28;45688;-79
2023/10/04 08:39:58;;;;;;;;;6.00;4.00;;;;;20.60;100.00;102527.59;5013557;28;46048;-81
2023/10/04 08:42:28;;;;;;;;;2.00;2.00;;;;;20.55;100.00;102516.28;5026419;28;46397;-79
2023/10/04 08:44:53;;;;;;;;;2.33;2.00;;;;;20.71;100.00;102526.00;5027962;28;45766;-81
2023/10/04 08:47:22;;;;;;;;;5.00;3.33;;;;;20.73;100.00;102513.50;5016213;28;45679;-79
2023/10/04 08:49:54;;;;;;;;;2.50;2.50;;;;;20.78;100.00;102508.09;5024301;28;45934;-81
2023/10/04 08:52:27;;;;;;;;;6.50;1.25;;;;;20.89;100.00;102514.81;5048590;28;46731;-81
2023/10/04 08:55:06;;;;;;;;;5.50;2.75;;;;;21.03;100.00;102514.63;5026914;28;46351;-80
2023/10/04 08:57:36;;;;;;;;;5.00;3.25;;;;;21.22;100.00;102537.75;5023552;28;45518;-80
2023/10/04 09:00:06;;;;;;;;;3.75;2.00;;;;;21.32;100.00;102538.03;5017405;28;47270;-83
2023/10/04 09:02:33;;;;;;;;;3.25;2.00;;;;;21.36;100.00;102535.63;5017500;28;46335;-82
2023/10/04 09:04:59;;;;;;;;;3.00;2.00;;;;;21.44;100.00;102552.03;5020002;28;45507;-84
2023/10/04 09:07:25;;;;;;;;;3.50;2.50;;;;;21.52;100.00;102555.34;5008935;28;45457;-83
2023/10/04 09:09:56;;;;;;;;;4.00;3.00;;;;;21.56;100.00;102539.00;5013672;28;45520;-82
2023/10/04 09:12:22;;;;;;;;;3.25;2.00;;;;;21.69;100.00;102530.41;5009118;28;46255;-80
2023/10/04 09:14:50;;;;;;;;;3.25;3.25;;;;;21.80;100.00;102523.13;5014329;28;45559;-82
2023/10/04 09:17:18;;;;;;;;;7.75;6.50;;;;;21.95;100.00;102527.41;5014594;28;45955;-82
2023/10/04 09:19:48;;;;;;;;;7.50;4.00;;;;;22.31;100.00;102542.22;5017657;28;45966;-84
2023/10/04 09:22:17;;;;;;;;;3.75;3.00;;;;;22.55;100.00;102541.09;5016016;28;45890;-82
2023/10/04 09:24:54;;;;;;;;;4.00;3.00;;;;;22.54;100.00;102508.63;5012702;28;45512;-82
2023/10/04 09:27:21;;;;;;;;;3.75;3.25;;;;;22.90;100.00;102531.78;5015140;28;45716;-84
2023/10/04 09:29:48;;;;;;;;;6.75;3.75;;;;;23.27;100.00;102550.16;5019888;28;45892;-82
2023/10/04 09:32:16;;;;;;;;;5.00;2.50;;;;;23.32;100.00;102533.44;5020934;28;46977;-83
2023/10/04 09:34:56;;;;;;;;;3.50;3.50;;;;;23.53;100.00;102539.41;5017045;28;45433;-86
2023/10/04 09:37:23;;;;;;;;;3.50;3.00;;;;;23.73;100.00;102539.78;5008976;28;45432;-83
2023/10/04 09:39:48;;;;;;;;;7.00;5.00;;;;;23.78;100.00;102533.41;5005063;28;46231;-82
2023/10/04 09:42:14;;;;;;;;;3.00;3.00;;;;;23.89;100.00;102526.91;5021530;28;45990;-83
2023/10/04 09:44:40;;;;;;;;;4.25;4.25;;;;;23.96;100.00;102509.91;5024261;28;45984;-84
2023/10/04 09:47:07;;;;;;;;;4.00;3.00;;;;;24.15;100.00;102522.53;5026489;28;45966;-83
2023/10/04 09:49:35;;;;;;;;;4.00;3.00;;;;;24.18;100.00;102514.72;5008441;28;45960;-82
2023/10/04 09:52:16;;;;;;;;;5.75;4.75;;;;;24.17;100.00;102490.59;5012437;28;46489;-83
2023/10/04 09:54:43;;;;;;;;;2.25;2.00;;;;;24.61;100.00;102501.88;5012618;28;46235;-84
2023/10/04 09:57:12;;;;;;;;;6.00;4.50;;;;;24.77;100.00;102491.69;5018051;28;45721;-83
2023/10/04 09:59:43;;;;;;;;;4.00;4.00;;;;;25.18;100.00;102514.59;5017646;28;45385;-84
2023/10/04 10:02:10;;;;;;;;;4.50;3.50;;;;;25.33;100.00;102494.25;5016855;28;47538;-85
2023/10/04 10:04:43;;;;;;;;;4.00;2.50;;;;;25.57;100.00;102493.91;5039521;28;45869;-86
2023/10/04 10:07:32;;;;;;;;;4.25;1.75;;;;;25.81;100.00;102489.63;5013291;28;45540;-85
2023/10/04 10:10:05;;;;;;;;;3.00;3.00;;;;;25.93;98.18;102475.38;5023678;28;47137;-81
2023/10/04 10:12:35;;;;;;;;;3.50;3.00;;;;;26.22;97.11;102503.13;5021772;28;46196;-82
2023/10/04 10:15:04;;;;;;;;;3.50;3.00;;;;;26.23;95.66;102482.34;5015305;28;45869;-81
2023/10/04 10:17:31;;;;;;;;;4.50;3.25;;;;;26.58;93.79;102509.78;5018757;28;45445;-81
2023/10/04 10:20:01;;;;;;;;;3.25;3.00;;;;;26.46;91.02;102489.47;5016126;28;45902;-83
2023/10/04 10:22:26;;;;;;;;;2.00;2.00;;;;;26.47;91.39;102470.63;5016660;28;46199;-87
2023/10/04 10:24:55;;;;;;;;;3.00;3.00;;;;;26.60;88.53;102489.81;5013349;28;45745;-83
2023/10/04 10:27:22;;;;;;;;;5.25;3.50;;;;;26.80;88.86;102500.34;5015637;28;45778;-84
2023/10/04 10:29:48;;;;;;;;;1.75;1.75;;;;;26.90;86.62;102475.03;5013694;28;45978;-83
2023/10/04 10:32:16;;;;;;;;;2.00;2.00;;;;;27.00;85.15;102484.63;5014903;28;45768;-86
2023/10/04 10:34:42;;;;;;;;;3.50;3.50;;;;;27.25;85.37;102510.00;5028005;28;46103;-82
2023/10/04 10:37:19;;;;;;;;;5.75;4.00;;;;;27.23;84.56;102512.28;5012350;28;46053;-85
2023/10/04 10:39:47;;;;;;;;;2.75;1.00;;;;;27.26;84.05;102497.63;5030806;28;46979;-86
2023/10/04 10:42:14;;;;;;;;;4.50;2.50;;;;;27.03;83.29;102481.25;5014478;28;45540;-83
2023/10/04 10:44:40;;;;;;;;;4.50;1.75;;;;;27.04;82.06;102497.03;5013628;28;45990;-86
2023/10/04 10:47:10;;;;;;;;;5.00;2.00;;;;;26.82;82.37;102458.69;5018435;28;45551;-83
2023/10/04 10:49:40;;;;;;;;;4.50;2.75;;;;;26.95;80.81;102475.03;5019338;28;45453;-85
2023/10/04 10:52:09;;;;;;;;;1.25;1.25;;;;;26.82;80.61;102474.72;5031570;28;45272;-81
2023/10/04 10:54:39;;;;;;;;;2.25;0.75;;;;;26.60;81.27;102465.34;5021105;28;45675;-79
2023/10/04 10:57:05;;;;;;;;;1.00;1.00;;;;;26.55;80.45;102490.63;5005591;28;45549;-79
2023/10/04 10:59:34;;;;;;;;;2.50;2.00;;;;;26.45;80.45;102468.06;5006623;28;45859;-82
2023/10/04 11:01:59;;;;;;;;;1.25;1.25;;;;;26.50;80.33;102482.19;5008844;28;45856;-83
2023/10/04 11:04:25;;;;;;;;;5.00;3.00;;;;;26.43;80.93;102473.16;5005328;28;45574;-81
2023/10/04 11:06:51;;;;;;;;;2.00;1.00;;;;;26.56;80.76;102481.09;5005620;28;45819;-81
2023/10/04 11:09:22;;;;;;;;;4.50;2.75;;;;;26.52;78.31;102465.88;5006369;28;45674;-82
2023/10/04 11:11:48;;;;;;;;;2.00;2.00;;;;;26.38;79.31;102462.72;5008139;28;45671;-80
2023/10/04 11:14:16;;;;;;;;;1.00;1.00;;;;;26.24;77.79;102453.94;5011164;28;45328;-80
2023/10/04 11:16:42;;;;;;;;;4.25;2.50;;;;;25.88;76.44;102433.16;5007112;28;45668;-82
2023/10/04 11:19:08;;;;;;;;;2.25;1.75;;;;;25.84;78.35;102452.56;5008624;28;46245;-82
2023/10/04 11:21:35;;;;;;;;;7.25;6.00;;;;;25.64;80.23;102427.09;5009026;28;45768;-85
2023/10/04 11:24:03;;;;;;;;;4.50;3.00;;;;;25.82;78.78;102463.19;5007035;28;45827;-83
2023/10/04 11:26:30;;;;;;;;;3.00;1.00;;;;;25.68;77.61;102464.81;5003195;28;45710;-82
2023/10/04 11:28:56;;;;;;;;;2.00;2.00;;;;;25.50;78.46;102450.03;5009109;28;45802;-83
2023/10/04 11:31:23;;;;;;;;;2.00;2.00;;;;;25.41;77.35;102467.69;5016311;28;47933;-80
2023/10/04 11:34:00;;;;;;;;;1.25;1.00;;;;;24.89;78.07;102416.59;5008886;28;45792;-83
2023/10/04 11:36:28;;;;;;;;;2.00;1.00;;;;;24.75;77.48;102427.41;5007777;28;45475;-84